Terminal Aerodrome Forecast
Issued by NWS Grand Junction, CO

Home | Current Version | Previous Version | Text Only | Print | Product List | Glossary On
Versions: 1 2 3 4 5 6 7 8 9 10 11 12 13 14 15 16 17 18 19 20 21
000
FTUS45 KGJT 280531
TAFGJT
TAF
KGJT 280531Z 2806/2906 13005KT P6SM SKC
     FM281200 12011KT P6SM SKC
     FM281700 17005KT P6SM SKC
     FM282000 28008KT P6SM FEW140
     FM290200 07005KT P6SM FEW250=

USA.gov is the U.S. government's official web portal to all federal, state and local government web resources and services.